ELY316 EGLL-LLBG
Flight info
| Callsign | ELY316 |
|---|---|
| Flight time | N/A |
| Altitude | 35000 |
| Route | DET L6 DVR UL9 KONAN DCT KOK DCT BITBU DCT BABEG DCT KONIN DCT ERKIR DCT DEGUM DCT ELTIB DCT VRANA DCT POD DCT RINAV DCT BONZI DCT BITLA DCT AKINA DCT VANZA DCT PIKOG L609 ZUKKO |
| Aircraft | B772/H-SDE2E3FGHIJ5LORVWXY/LB1D1 |
Departure
| Time | 2026-05-06 06:42 |
|---|---|
| Airport | London Heathrow Airport (EGLL) |
Arrival
| Time | N/A |
|---|---|
| Airport | Ben Gurion International Airport (LLBG) |
| Time | Latitude | Longitude | Altitude | Speed | Heading |
|---|---|---|---|---|---|
| 2026-05-06 06:15 | 51.45754 | -0.45041 | 94 ft | 0 kts | 330° |
| 2026-05-06 06:29 | 51.45749 | -0.45037 | 95 ft | 4 kts | 329° |
| 2026-05-06 06:29 | 51.45728 | -0.45012 | 93 ft | 4 kts | 315° |
| 2026-05-06 06:29 | 51.45711 | -0.44979 | 93 ft | 4 kts | 296° |
| 2026-05-06 06:30 | 51.45704 | -0.44939 | 92 ft | 4 kts | 263° |
| 2026-05-06 06:30 | 51.45707 | -0.44919 | 93 ft | 0 kts | 240° |
| 2026-05-06 06:33 | 51.45675 | -0.45062 | 91 ft | 18 kts | 263° |
| 2026-05-06 06:34 | 51.45696 | -0.45255 | 95 ft | 18 kts | 305° |
| 2026-05-06 06:34 | 51.45809 | -0.45331 | 91 ft | 18 kts | 358° |
| 2026-05-06 06:34 | 51.45934 | -0.45329 | 90 ft | 18 kts | 2° |
| 2026-05-06 06:34 | 51.46060 | -0.45327 | 90 ft | 18 kts | 351° |
| 2026-05-06 06:35 | 51.46168 | -0.45430 | 95 ft | 18 kts | 325° |
| 2026-05-06 06:35 | 51.46272 | -0.45545 | 97 ft | 18 kts | 325° |
| 2026-05-06 06:35 | 51.46318 | -0.45646 | 96 ft | 12 kts | 283° |
| 2026-05-06 06:35 | 51.46323 | -0.45867 | 92 ft | 21 kts | 269° |
| 2026-05-06 06:36 | 51.46322 | -0.46105 | 92 ft | 21 kts | 270° |
| 2026-05-06 06:36 | 51.46321 | -0.46344 | 94 ft | 22 kts | 269° |
| 2026-05-06 06:36 | 51.46321 | -0.46620 | 94 ft | 25 kts | 270° |
| 2026-05-06 06:36 | 51.46323 | -0.46803 | 92 ft | 25 kts | 270° |
| 2026-05-06 06:37 | 51.46321 | -0.47080 | 94 ft | 25 kts | 270° |
| 2026-05-06 06:37 | 51.46322 | -0.47359 | 94 ft | 25 kts | 278° |
| 2026-05-06 06:37 | 51.46334 | -0.47632 | 93 ft | 25 kts | 254° |
| 2026-05-06 06:37 | 51.46252 | -0.47905 | 94 ft | 26 kts | 261° |
| 2026-05-06 06:38 | 51.46250 | -0.48181 | 92 ft | 25 kts | 270° |
| 2026-05-06 06:38 | 51.46249 | -0.48455 | 92 ft | 25 kts | 270° |
| 2026-05-06 06:38 | 51.46278 | -0.48665 | 96 ft | 10 kts | 310° |
| 2026-05-06 06:38 | 51.46302 | -0.48697 | 92 ft | 0 kts | 320° |
| 2026-05-06 06:40 | 51.46323 | -0.48722 | 95 ft | 7 kts | 324° |
| 2026-05-06 06:40 | 51.46380 | -0.48754 | 95 ft | 17 kts | 353° |
| 2026-05-06 06:41 | 51.46452 | -0.48739 | 95 ft | 9 kts | 29° |
| 2026-05-06 06:41 | 51.46477 | -0.48648 | 95 ft | 9 kts | 89° |
| 2026-05-06 06:41 | 51.46478 | -0.48606 | 93 ft | 0 kts | 89° |
| 2026-05-06 06:41 | 51.46478 | -0.48605 | 93 ft | 3 kts | 89° |
| 2026-05-06 06:42 | 51.46479 | -0.48207 | 93 ft | 72 kts | 89° |
| 2026-05-06 06:42 | 51.46483 | -0.47063 | 94 ft | 137 kts | 89° |
| 2026-05-06 06:42 | 51.46494 | -0.45174 | 200 ft | 184 kts | 91° |
| 2026-05-06 06:42 | 51.46476 | -0.43048 | 792 ft | 198 kts | 90° |
| 2026-05-06 06:43 | 51.46226 | -0.40884 | 1616 ft | 204 kts | 110° |
| 2026-05-06 06:43 | 51.45388 | -0.38971 | 2144 ft | 222 kts | 128° |
| 2026-05-06 06:43 | 51.44482 | -0.36926 | 2471 ft | 230 kts | 109° |
| 2026-05-06 06:43 | 51.43975 | -0.34396 | 2878 ft | 246 kts | 103° |
| 2026-05-06 06:44 | 51.43448 | -0.31669 | 3359 ft | 266 kts | 105° |
| 2026-05-06 06:44 | 51.42851 | -0.28787 | 4053 ft | 276 kts | 106° |
| 2026-05-06 06:44 | 51.42329 | -0.25799 | 4722 ft | 283 kts | 98° |
| 2026-05-06 06:44 | 51.41949 | -0.22741 | 5707 ft | 279 kts | 98° |
| 2026-05-06 06:45 | 51.41558 | -0.19669 | 6328 ft | 282 kts | 98° |
| 2026-05-06 06:45 | 51.41150 | -0.16580 | 6810 ft | 286 kts | 100° |
| 2026-05-06 06:45 | 51.40699 | -0.13497 | 7715 ft | 284 kts | 101° |
| 2026-05-06 06:45 | 51.40218 | -0.10374 | 8440 ft | 292 kts | 101° |
| 2026-05-06 06:46 | 51.39722 | -0.07205 | 9323 ft | 294 kts | 102° |
| 2026-05-06 06:46 | 51.39206 | -0.03962 | 9896 ft | 310 kts | 102° |
| 2026-05-06 06:46 | 51.38672 | -0.00493 | 10189 ft | 331 kts | 101° |
| 2026-05-06 06:46 | 51.38110 | 0.03182 | 10711 ft | 345 kts | 102° |
| 2026-05-06 06:47 | 51.37521 | 0.06928 | 11354 ft | 357 kts | 103° |
| 2026-05-06 06:47 | 51.36849 | 0.10869 | 12045 ft | 369 kts | 104° |
| 2026-05-06 06:47 | 51.36192 | 0.14858 | 12697 ft | 383 kts | 103° |
| 2026-05-06 06:47 | 51.35521 | 0.19043 | 13496 ft | 392 kts | 103° |
| 2026-05-06 06:48 | 51.34841 | 0.23307 | 14353 ft | 399 kts | 103° |
| 2026-05-06 06:48 | 51.34149 | 0.27644 | 15171 ft | 405 kts | 104° |
| 2026-05-06 06:48 | 51.33447 | 0.32023 | 16056 ft | 410 kts | 104° |
| 2026-05-06 06:48 | 51.32731 | 0.36486 | 17002 ft | 416 kts | 104° |
| 2026-05-06 06:49 | 51.32007 | 0.40978 | 17989 ft | 418 kts | 104° |
| 2026-05-06 06:49 | 51.31093 | 0.46648 | 19025 ft | 425 kts | 104° |